Time;durP1;ratioP1;P1;durP2;ratioP2;P2;SDS_P1;SDS_P2;PMS_P1;PMS_P2;Temp;Humidity;BMP_temperature;BMP_pressure;BME280_temperature;BME280_humidity;BME280_pressure;Samples;Min_cycle;Max_cycle;Signal;HPM_P1;HPM_P2
2022/01/11 00:00:52;;;;;;;3.00;2.50;;;;;;;20.51;39.52;97860.63;12615451;23;20022;-53
2022/01/11 00:11:36;;;;;;;3.00;2.63;;;;;;;20.48;39.53;97860.44;12615088;23;20026;-51
2022/01/11 00:16:56;;;;;;;3.17;2.42;;;;;;;20.46;39.60;97862.63;12613720;23;20026;-50
2022/01/11 00:22:19;;;;;;;3.17;2.63;;;;;;;20.45;39.45;97861.84;12612330;23;20339;-50
2022/01/11 00:27:38;;;;;;;2.92;2.58;;;;;;;20.43;39.48;97874.88;12631723;23;20022;-51
2022/01/11 00:33:01;;;;;;;3.92;2.85;;;;;;;20.43;39.52;97874.09;12609931;23;20024;-51
2022/01/11 00:38:21;;;;;;;2.83;2.53;;;;;;;20.41;39.41;97873.59;12631711;23;20015;-50
2022/01/11 00:43:42;;;;;;;5.00;2.75;;;;;;;20.40;39.63;97877.41;12631522;23;20032;-52
2022/01/11 00:49:02;;;;;;;2.95;2.50;;;;;;;20.40;39.63;97880.09;12631313;23;20025;-54
2022/01/11 00:54:22;;;;;;;2.97;2.53;;;;;;;20.37;39.58;97891.53;12611665;23;20026;-51
2022/01/11 00:59:41;;;;;;;3.08;2.42;;;;;;;20.37;39.61;97900.47;12611039;23;20022;-51
2022/01/11 01:05:02;;;;;;;3.20;2.63;;;;;;;20.34;39.64;97899.13;12611519;23;20023;-51
2022/01/11 01:15:49;;;;;;;3.53;2.60;;;;;;;20.32;39.73;97905.97;12588985;23;20014;-51
2022/01/11 01:21:17;;;;;;;3.22;2.83;;;;;;;20.32;39.89;97914.88;12589748;23;20042;-50
2022/01/11 01:26:36;;;;;;;4.03;2.80;;;;;;;20.31;39.72;97921.41;12611021;23;20085;-53
2022/01/11 01:31:56;;;;;;;3.00;2.40;;;;;;;20.30;39.71;97914.38;12610887;23;20022;-50
2022/01/11 01:37:16;;;;;;;3.42;2.80;;;;;;;20.28;39.77;97922.00;12588498;23;20018;-50
2022/01/11 01:42:36;;;;;;;3.55;2.72;;;;;;;20.26;39.76;97921.50;12630431;23;20018;-51
2022/01/11 01:47:58;;;;;;;4.57;2.30;;;;;;;20.25;39.75;97930.75;12610671;23;20014;-50
2022/01/11 01:53:17;;;;;;;2.90;2.58;;;;;;;20.23;39.76;97919.41;12609507;23;20028;-50
2022/01/11 01:58:38;;;;;;;2.85;2.50;;;;;;;20.22;39.76;97923.22;12630124;23;20073;-51
2022/01/11 02:03:57;;;;;;;3.30;2.60;;;;;;;20.20;39.86;97925.41;12608650;23;20022;-52
2022/01/11 02:09:17;;;;;;;2.80;2.35;;;;;;;20.19;39.77;97939.25;12568807;23;20041;-51
2022/01/11 02:14:38;;;;;;;3.03;2.72;;;;;;;20.17;39.96;97936.03;12609441;23;20041;-51
2022/01/11 02:19:59;;;;;;;2.90;2.33;;;;;;;20.15;39.80;97934.44;12587628;23;20030;-51
2022/01/11 02:25:18;;;;;;;3.22;2.67;;;;;;;20.14;39.79;97932.03;12608046;23;20022;-50
2022/01/11 02:30:38;;;;;;;3.53;2.80;;;;;;;20.12;39.86;97928.81;12629248;23;20014;-50
2022/01/11 02:35:59;;;;;;;2.92;2.58;;;;;;;20.10;39.76;97929.13;12610070;23;20018;-50
2022/01/11 02:41:19;;;;;;;3.10;2.78;;;;;;;20.08;39.88;97936.75;12608909;23;20023;-50
2022/01/11 02:46:39;;;;;;;2.72;2.40;;;;;;;20.07;39.78;97932.44;12588408;23;20019;-51
2022/01/11 02:51:59;;;;;;;2.75;2.53;;;;;;;20.05;39.81;97939.22;12588253;23;20018;-50
2022/01/11 02:57:20;;;;;;;3.30;2.70;;;;;;;20.05;39.84;97941.94;12629176;23;20019;-50
2022/01/11 03:02:41;;;;;;;3.08;2.78;;;;;;;20.02;39.91;97937.16;12588322;23;20373;-50
2022/01/11 03:08:01;;;;;;;2.60;2.40;;;;;;;19.99;39.96;97941.22;12588150;23;20037;-50
2022/01/11 03:13:21;;;;;;;3.15;2.50;;;;;;;20.00;39.80;97958.28;12588239;23;20018;-51
2022/01/11 03:18:45;;;;;;;2.60;2.22;;;;;;;19.98;39.85;97957.78;12587509;23;20375;-50
2022/01/11 03:24:05;;;;;;;2.78;2.50;;;;;;;19.94;39.86;97966.47;12629174;23;20443;-52
2022/01/11 03:29:25;;;;;;;3.35;3.03;;;;;;;19.93;39.99;97964.88;12629048;23;20019;-51
2022/01/11 03:34:45;;;;;;;2.70;2.35;;;;;;;19.92;40.02;97979.50;12609389;23;20018;-53
2022/01/11 03:40:09;;;;;;;2.70;2.50;;;;;;;19.90;40.00;97991.72;12609351;23;20018;-50
2022/01/11 03:45:29;;;;;;;3.28;2.92;;;;;;;19.88;40.04;97989.31;12629111;23;20030;-51
2022/01/11 03:50:56;;;;;;;2.65;2.45;;;;;;;19.87;39.92;97998.50;12587903;23;20312;-50
2022/01/11 03:56:29;;;;;;;2.90;2.45;;;;;;;19.86;40.00;97990.72;12610341;23;20498;-50
2022/01/11 04:02:04;;;;;;;3.15;2.70;;;;;;;19.84;39.97;97991.00;12591064;23;20018;-50
2022/01/11 04:07:26;;;;;;;3.10;2.70;;;;;;;19.83;39.92;98004.81;12612690;23;20443;-51
2022/01/11 04:12:48;;;;;;;2.72;2.30;;;;;;;19.81;40.26;98005.09;12590812;23;20018;-51
2022/01/11 04:18:08;;;;;;;3.22;2.70;;;;;;;19.78;40.01;98000.31;12590733;23;20026;-51
2022/01/11 04:23:28;;;;;;;3.83;2.85;;;;;;;19.77;39.98;98009.50;12610149;23;20029;-51
2022/01/11 04:28:48;;;;;;;2.90;2.42;;;;;;;19.75;40.05;98007.09;12612245;23;20018;-51
2022/01/11 04:34:08;;;;;;;3.80;2.85;;;;;;;19.74;40.03;98008.19;12611555;23;20022;-51
2022/01/11 04:39:28;;;;;;;3.00;2.70;;;;;;;19.72;40.02;98018.50;12590115;23;20023;-50
2022/01/11 04:44:48;;;;;;;2.70;2.47;;;;;;;19.71;40.05;98018.78;12590324;23;20045;-52
2022/01/11 04:50:09;;;;;;;2.85;2.55;;;;;;;19.69;39.94;98029.06;12590559;23;20018;-51
2022/01/11 04:55:29;;;;;;;3.25;2.67;;;;;;;19.67;40.09;98028.56;12590235;23;20022;-52
2022/01/11 05:00:50;;;;;;;3.45;2.83;;;;;;;19.65;40.08;98034.25;12631308;23;20018;-52
2022/01/11 05:06:10;;;;;;;3.53;2.65;;;;;;;19.62;40.02;98037.56;12589762;23;20069;-50
2022/01/11 05:11:32;;;;;;;3.15;2.85;;;;;;;19.62;40.16;98040.28;12588540;23;20026;-51
2022/01/11 05:16:52;;;;;;;3.15;2.70;;;;;;;19.62;40.37;98044.84;12589457;23;20022;-50
2022/01/11 05:22:12;;;;;;;2.65;2.45;;;;;;;19.61;40.54;98046.78;12609310;23;20018;-50
2022/01/11 05:27:32;;;;;;;3.08;2.78;;;;;;;19.61;40.48;98052.19;12610210;23;20022;-54
2022/01/11 05:32:52;;;;;;;2.97;2.70;;;;;;;19.60;40.95;98053.28;12607995;23;20073;-50
2022/01/11 05:38:12;;;;;;;4.45;2.70;;;;;;;19.62;40.63;98055.66;12610779;23;20461;-50
2022/01/11 05:43:32;;;;;;;3.45;2.80;;;;;;;19.63;40.94;98074.31;12629814;23;20022;-51
2022/01/11 05:48:52;;;;;;;4.38;2.92;;;;;;;19.65;41.02;98076.72;12588396;23;20026;-52
2022/01/11 05:54:12;;;;;;;3.67;2.67;;;;;;;19.66;41.21;98081.03;12608223;23;20014;-52
2022/01/11 05:59:32;;;;;;;3.85;3.05;;;;;;;19.67;41.53;98088.84;12587797;23;20391;-51
2022/01/11 06:04:51;;;;;;;5.85;3.55;;;;;;;19.66;41.02;98095.38;12609718;23;20014;-50
2022/01/11 06:10:12;;;;;;;14.32;5.20;;;;;;;19.69;40.98;98104.78;12605060;23;20068;-51
2022/01/11 06:15:33;;;;;;;16.92;6.18;;;;;;;19.71;41.36;98102.59;12586006;23;20045;-52
2022/01/11 06:20:54;;;;;;;18.95;7.00;;;;;;;19.74;41.20;98115.56;12627134;23;20021;-51
2022/01/11 06:26:15;;;;;;;17.83;6.93;;;;;;;19.75;41.43;98120.66;12602384;23;20376;-52
2022/01/11 06:31:35;;;;;;;16.17;7.07;;;;;;;19.79;41.52;98134.41;12603853;23;20567;-50
2022/01/11 06:36:55;;;;;;;16.08;6.97;;;;;;;19.81;41.57;98137.59;12603848;23;20439;-51
2022/01/11 06:42:14;;;;;;;17.63;7.53;;;;;;;19.83;41.60;98154.34;12610082;23;20022;-50
2022/01/11 06:47:35;;;;;;;16.67;6.85;;;;;;;19.85;41.43;98160.25;12608608;23;20014;-53
2022/01/11 06:52:55;;;;;;;20.05;7.43;;;;;;;19.87;41.53;98170.78;12608628;23;20018;-51
2022/01/11 06:58:16;;;;;;;19.73;7.03;;;;;;;19.88;41.59;98170.50;12608540;23;20019;-51
2022/01/11 07:03:36;;;;;;;14.98;6.60;;;;;;;19.89;41.51;98185.63;12608542;23;20018;-52
2022/01/11 07:09:16;;;;;;;19.20;7.53;;;;;;;19.88;41.52;98194.03;12608362;23;20450;-51
2022/01/11 07:14:36;;;;;;;14.38;6.32;;;;;;;19.91;41.70;98204.25;12607721;23;20090;-51
2022/01/11 07:19:56;;;;;;;15.85;6.88;;;;;;;19.91;41.65;98205.06;12598766;23;20057;-51
2022/01/11 07:25:16;;;;;;;17.00;6.93;;;;;;;19.90;41.60;98219.69;12587386;23;20575;-51
2022/01/11 07:30:37;;;;;;;12.88;6.38;;;;;;;19.91;41.62;98220.50;12590577;23;20024;-53
2022/01/11 07:35:59;;;;;;;13.20;6.40;;;;;;;19.91;41.68;98215.88;12589003;23;20587;-51
2022/01/11 07:41:19;;;;;;;17.33;5.97;;;;;;;19.92;41.36;98230.22;12590378;23;20026;-51
2022/01/11 07:46:53;;;;;;;12.35;6.55;;;;;;;19.92;41.50;98244.53;12589794;23;20025;-51
2022/01/11 07:52:21;;;;;;;11.35;6.15;;;;;;;19.90;41.36;98251.34;12611105;23;20081;-51
2022/01/11 07:57:41;;;;;;;12.15;6.40;;;;;;;19.90;41.36;98257.56;12571357;23;20014;-51
2022/01/11 08:03:02;;;;;;;12.52;6.13;;;;;;;19.90;41.30;98256.75;12591865;23;20085;-52
2022/01/11 08:08:38;;;;;;;9.73;6.28;;;;;;;19.88;41.24;98261.66;12610846;23;20015;-51
2022/01/11 08:14:00;;;;;;;11.23;5.93;;;;;;;19.90;41.25;98275.69;12611448;23;20455;-52
2022/01/11 08:19:25;;;;;;;9.60;5.43;;;;;;;19.89;41.40;98282.97;12651757;23;20021;-51
2022/01/11 08:24:46;;;;;;;9.15;5.70;;;;;;;19.90;41.25;98290.00;12651327;23;20375;-52
2022/01/11 08:30:06;;;;;;;11.32;6.07;;;;;;;19.89;41.22;98287.59;12651305;23;20429;-51
2022/01/11 08:35:30;;;;;;;12.65;6.22;;;;;;;19.87;41.24;98293.28;12650382;23;20021;-52
2022/01/11 08:40:49;;;;;;;9.93;5.88;;;;;;;19.86;41.29;98293.59;12670071;23;20018;-50
2022/01/11 08:46:10;;;;;;;11.05;5.88;;;;;;;19.85;41.14;98300.88;12650777;23;20014;-51
2022/01/11 08:51:44;;;;;;;10.32;5.88;;;;;;;19.85;41.15;98309.00;12649988;23;20078;-54
2022/01/11 08:57:06;;;;;;;9.20;5.78;;;;;;;19.84;41.19;98315.50;12669971;23;20338;-51
2022/01/11 09:02:26;;;;;;;9.30;5.35;;;;;;;19.84;41.10;98317.41;12670287;23;20021;-50
2022/01/11 09:07:46;;;;;;;8.60;4.93;;;;;;;19.83;41.09;98318.50;12671709;23;20017;-51
2022/01/11 09:13:06;;;;;;;8.95;5.32;;;;;;;19.82;40.90;98325.81;12648650;23;20328;-53
2022/01/11 09:18:26;;;;;;;7.65;5.20;;;;;;;19.80;41.02;98321.78;12616967;23;20022;-51
2022/01/11 09:23:47;;;;;;;9.40;5.50;;;;;;;19.79;40.91;98334.50;12589893;23;20458;-50
2022/01/11 09:29:08;;;;;;;8.18;4.90;;;;;;;19.77;41.05;98344.78;12609318;23;20025;-51
2022/01/11 09:34:28;;;;;;;10.13;5.30;;;;;;;19.77;40.98;98344.78;12611165;23;20038;-50
2022/01/11 09:39:48;;;;;;;8.50;5.20;;;;;;;19.76;40.87;98335.09;12589608;23;20109;-51
2022/01/11 09:45:12;;;;;;;7.95;5.05;;;;;;;19.74;41.06;98329.16;12609024;23;20023;-52
2022/01/11 09:50:37;;;;;;;7.22;4.85;;;;;;;19.74;40.87;98329.16;12608724;23;20066;-53
2022/01/11 09:56:04;;;;;;;7.90;5.30;;;;;;;19.71;40.95;98321.59;12589179;23;20375;-51
2022/01/11 10:01:26;;;;;;;7.60;5.07;;;;;;;19.69;40.98;98316.47;12608523;23;20049;-52
2022/01/11 10:07:06;;;;;;;7.75;5.05;;;;;;;19.68;40.94;98312.16;12609688;23;20020;-52
2022/01/11 10:12:29;;;;;;;8.20;4.70;;;;;;;19.67;40.92;98301.63;12589125;23;20347;-52
2022/01/11 10:17:49;;;;;;;8.63;5.07;;;;;;;19.66;40.86;98306.25;12605384;23;20022;-53
2022/01/11 10:23:18;;;;;;;6.97;4.63;;;;;;;19.65;40.76;98315.44;12588009;23;20085;-51
2022/01/11 10:28:41;;;;;;;7.78;5.20;;;;;;;19.65;40.56;98318.13;12587136;23;20097;-51
2022/01/11 10:34:02;;;;;;;7.85;5.18;;;;;;;19.62;40.56;98313.31;12583207;23;20070;-52
2022/01/11 10:39:39;;;;;;;7.38;4.78;;;;;;;19.63;40.31;98314.13;12627198;23;20021;-53
2022/01/11 10:45:08;;;;;;;6.57;4.63;;;;;;;19.61;40.33;98319.81;12586990;23;20025;-51
2022/01/11 10:50:37;;;;;;;6.78;4.65;;;;;;;19.60;40.57;98320.09;12607591;23;20701;-51
2022/01/11 10:56:00;;;;;;;7.20;4.57;;;;;;;19.59;40.58;98321.19;12588033;23;20025;-50
2022/01/11 11:01:30;;;;;;;7.28;4.65;;;;;;;19.60;40.74;98336.31;12606685;23;20022;-51
2022/01/11 11:06:49;;;;;;;8.50;4.63;;;;;;;19.58;40.58;98355.50;12609015;23;20458;-52
2022/01/11 11:12:17;;;;;;;6.32;4.78;;;;;;;19.56;40.71;98333.34;12587537;23;20342;-50
2022/01/11 11:17:51;;;;;;;6.15;4.65;;;;;;;19.56;40.65;98342.28;12587525;23;20027;-52
2022/01/11 11:23:19;;;;;;;6.30;4.55;;;;;;;19.54;40.62;98344.47;12588382;23;20510;-51
2022/01/11 11:28:39;;;;;;;6.68;4.60;;;;;;;19.53;40.79;98350.16;12608864;23;20015;-51
2022/01/11 11:34:00;;;;;;;7.10;4.63;;;;;;;19.52;40.72;98351.25;12609505;23;20018;-51
2022/01/11 11:39:21;;;;;;;6.38;4.32;;;;;;;19.49;40.88;98344.53;12607369;23;20565;-51
2022/01/11 11:44:43;;;;;;;7.05;4.63;;;;;;;19.49;40.94;98343.72;12607548;23;20026;-51
2022/01/11 11:50:05;;;;;;;7.32;4.55;;;;;;;19.46;40.90;98347.78;12609562;23;20387;-52
2022/01/11 11:55:30;;;;;;;5.60;4.50;;;;;;;19.46;40.82;98344.28;12608697;23;20018;-51
2022/01/11 12:00:51;;;;;;;5.57;4.10;;;;;;;19.44;40.85;98347.28;12627395;23;20020;-50
2022/01/11 12:06:28;;;;;;;6.57;4.65;;;;;;;19.43;41.01;98345.66;12628805;23;20085;-51
2022/01/11 12:11:50;;;;;;;5.97;4.57;;;;;;;19.42;40.91;98333.22;12608964;23;20549;-51
2022/01/11 12:17:10;;;;;;;6.75;4.43;;;;;;;19.40;40.91;98337.31;12611739;23;20045;-52
2022/01/11 12:22:32;;;;;;;5.30;4.40;;;;;;;19.39;41.00;98333.81;12632265;23;20014;-50
2022/01/11 12:28:00;;;;;;;6.65;4.50;;;;;;;19.38;40.86;98337.59;12630976;23;20026;-50
2022/01/11 12:33:22;;;;;;;5.65;4.22;;;;;;;19.38;40.81;98337.59;12611618;23;20049;-50
2022/01/11 12:39:03;;;;;;;6.65;4.18;;;;;;;19.35;40.82;98335.50;12625967;23;20023;-52
2022/01/11 12:45:35;;;;;;;5.28;4.20;;;;;;;19.33;41.00;98346.56;12611917;23;20018;-51
2022/01/11 12:50:16;;;;;;;5.80;4.60;;;;;;;19.33;41.00;98332.28;12610712;23;20018;-50
2022/01/11 12:55:36;;;;;;;6.43;4.65;;;;;;;19.32;40.72;98323.34;12611027;23;20443;-52
2022/01/11 13:00:56;;;;;;;4.88;3.75;;;;;;;19.30;40.83;98325.50;12611331;23;20094;-52
2022/01/11 13:06:15;;;;;;;5.55;3.72;;;;;;;19.30;40.92;98325.50;12611541;23;20022;-51
2022/01/11 13:11:36;;;;;;;4.40;3.85;;;;;;;19.30;40.80;98340.94;12610682;23;20448;-50
2022/01/11 13:17:03;;;;;;;6.32;4.20;;;;;;;19.27;40.87;98336.91;12588582;23;20061;-52
2022/01/11 13:22:25;;;;;;;5.05;4.00;;;;;;;19.25;40.97;98333.69;12610413;23;20046;-50
2022/01/11 13:27:52;;;;;;;5.10;3.88;;;;;;;19.26;40.87;98323.69;12609769;23;20038;-51
2022/01/11 13:33:30;;;;;;;5.82;3.90;;;;;;;19.23;40.79;98318.84;12626892;23;20014;-50
2022/01/11 13:38:59;;;;;;;6.05;4.10;;;;;;;19.22;41.18;98328.03;12630163;23;20014;-50
2022/01/11 13:44:21;;;;;;;5.88;3.97;;;;;;;19.22;41.13;98333.44;12610472;23;20021;-51
2022/01/11 13:49:44;;;;;;;5.72;4.07;;;;;;;19.21;40.94;98327.25;12610366;23;20606;-50
2022/01/11 13:55:04;;;;;;;5.78;4.25;;;;;;;19.18;41.10;98325.09;12610346;23;20089;-51
2022/01/11 14:00:23;;;;;;;5.05;3.95;;;;;;;19.16;41.05;98324.56;12610068;23;20073;-52
2022/01/11 14:05:44;;;;;;;4.65;3.88;;;;;;;19.15;41.09;98331.88;12629800;23;20081;-52
2022/01/11 14:11:07;;;;;;;4.35;3.50;;;;;;;19.13;41.17;98325.97;12628919;23;20089;-54
2022/01/11 14:16:27;;;;;;;4.80;4.05;;;;;;;19.12;41.10;98327.03;12608726;23;20030;-51
2022/01/11 14:21:50;;;;;;;5.05;3.97;;;;;;;19.11;41.12;98330.84;12587564;23;20019;-51
2022/01/11 14:27:26;;;;;;;4.30;3.80;;;;;;;19.10;41.18;98334.63;12629004;23;20029;-51
2022/01/11 14:32:52;;;;;;;4.50;3.72;;;;;;;19.09;41.17;98337.59;12628864;23;20332;-50
2022/01/11 14:38:12;;;;;;;5.90;4.00;;;;;;;19.07;41.23;98332.50;12609323;23;20512;-51
2022/01/11 14:43:33;;;;;;;5.95;3.60;;;;;;;19.05;41.29;98331.97;12608429;23;20093;-51
2022/01/11 14:49:01;;;;;;;4.30;3.58;;;;;;;19.05;40.94;98350.06;12609360;23;20343;-54
2022/01/11 14:54:23;;;;;;;5.10;4.25;;;;;;;19.04;40.96;98354.66;12629376;23;20089;-50
2022/01/11 14:59:43;;;;;;;4.63;3.83;;;;;;;19.03;40.86;98353.03;12608720;23;20097;-51
2022/01/11 15:05:05;;;;;;;5.10;3.83;;;;;;;19.02;41.07;98356.84;12627631;23;20093;-52
2022/01/11 15:10:27;;;;;;;4.72;3.80;;;;;;;19.03;40.92;98368.44;12627606;23;20018;-54
2022/01/11 15:15:47;;;;;;;4.22;3.55;;;;;;;19.04;40.83;98370.06;12628039;23;20148;-51
2022/01/11 15:21:08;;;;;;;4.78;3.92;;;;;;;19.05;40.97;98371.66;12607585;23;20093;-53
2022/01/11 15:26:30;;;;;;;4.68;3.95;;;;;;;19.04;40.91;98367.38;12608989;23;20015;-52
2022/01/11 15:31:50;;;;;;;5.45;3.80;;;;;;;19.05;40.95;98366.28;12608354;23;20028;-50
2022/01/11 15:37:10;;;;;;;5.28;3.75;;;;;;;19.07;41.02;98370.31;12586907;23;20025;-50
2022/01/11 15:42:29;;;;;;;5.20;3.92;;;;;;;19.10;41.02;98366.25;12609022;23;20082;-51
2022/01/11 15:47:49;;;;;;;4.72;3.80;;;;;;;19.10;40.96;98377.84;12609478;23;20037;-54
2022/01/11 15:53:08;;;;;;;5.18;3.42;;;;;;;19.12;40.72;98375.66;12612886;23;20018;-52
2022/01/11 15:58:28;;;;;;;4.25;3.80;;;;;;;19.13;40.83;98374.59;12612770;23;20019;-51
2022/01/11 16:03:51;;;;;;;4.72;3.88;;;;;;;19.16;41.02;98384.81;12632147;23;20018;-51
2022/01/11 16:09:10;;;;;;;4.90;3.80;;;;;;;19.19;40.90;98383.47;12612460;23;20089;-50
2022/01/11 16:14:34;;;;;;;5.75;3.90;;;;;;;19.22;40.93;98373.97;12611704;23;20021;-50
2022/01/11 16:19:53;;;;;;;4.38;3.60;;;;;;;19.26;41.02;98383.91;12610871;23;20072;-54
2022/01/11 16:25:13;;;;;;;4.90;3.65;;;;;;;19.29;40.88;98374.47;12631246;23;20022;-52
2022/01/11 16:30:37;;;;;;;5.22;3.83;;;;;;;19.34;40.95;98382.50;12631665;23;20021;-51
2022/01/11 16:35:57;;;;;;;5.30;4.07;;;;;;;19.35;40.87;98382.22;12631545;23;20019;-51
2022/01/11 16:46:36;;;;;;;7.55;5.57;;;;;;;19.28;38.85;98392.53;12629187;23;20018;-52
2022/01/11 16:51:55;;;;;;;7.97;5.40;;;;;;;19.37;39.33;98400.88;12608651;23;20026;-51
2022/01/11 16:57:15;;;;;;;9.80;5.90;;;;;;;19.44;39.54;98404.03;12611268;23;20018;-51
2022/01/11 17:02:34;;;;;;;53.70;34.35;;;;;;;19.53;39.72;98409.63;12630331;23;20053;-52
2022/01/11 17:07:54;;;;;;;29.98;18.10;;;;;;;19.58;40.64;98412.28;12630254;23;20089;-51
2022/01/11 17:13:14;;;;;;;23.17;15.95;;;;;;;19.63;41.50;98408.72;12610063;23;20029;-56
2022/01/11 17:18:33;;;;;;;53.53;34.22;;;;;;;19.68;41.39;98417.59;12630246;23;20018;-50
2022/01/11 17:23:53;;;;;;;30.85;22.17;;;;;;;19.73;41.39;98422.19;12609878;23;20177;-52
2022/01/11 17:29:14;;;;;;;35.42;22.02;;;;;;;19.79;41.75;98429.16;12610720;23;20027;-49
2022/01/11 17:34:34;;;;;;;31.60;20.70;;;;;;;-146.19;100.00;65364.44;12609437;23;20018;-50
2022/01/11 17:39:53;;;;;;;39.22;24.73;;;;;;;19.79;41.75;98429.16;12607091;23;20018;-48
2022/01/11 17:45:15;;;;;;;33.85;21.38;;;;;;;19.93;40.89;98446.31;12609691;23;20023;-58
2022/01/11 17:50:34;;;;;;;27.15;16.90;;;;;;;19.99;40.66;98452.47;12608907;23;20022;-60
2022/01/11 17:55:54;;;;;;;21.00;14.75;;;;;;;20.03;40.58;98450.81;12629935;23;20458;-50
2022/01/11 18:01:13;;;;;;;20.58;13.20;;;;;;;20.08;40.36;98450.75;12609455;23;20402;-62
2022/01/11 18:06:33;;;;;;;18.30;12.57;;;;;;;20.13;40.46;98455.28;12628465;23;20026;-62
2022/01/11 18:11:53;;;;;;;16.98;11.55;;;;;;;20.18;40.55;98462.56;12608011;23;20022;-60
2022/01/11 18:17:13;;;;;;;18.38;12.35;;;;;;;20.23;40.61;98476.03;12607884;23;20018;-53
2022/01/11 18:22:33;;;;;;;15.63;11.23;;;;;;;20.25;40.65;98474.66;12609196;23;20467;-58
2022/01/11 18:27:55;;;;;;;14.20;10.88;;;;;;;-146.19;100.00;65364.44;12629286;23;20022;-59
2022/01/11 18:33:15;;;;;;;14.15;10.20;;;;;;;-146.19;100.00;65364.44;12608122;23;20025;-60
2022/01/11 18:38:34;;;;;;;13.45;10.88;;;;;;;-146.19;100.00;65364.44;12609686;23;20023;-59
2022/01/11 18:43:54;;;;;;;12.40;9.68;;;;;;;20.25;40.65;98474.66;12608557;23;20086;-59
2022/01/11 18:49:13;;;;;;;13.05;10.10;;;;;;;20.25;40.65;98474.66;12607718;23;20025;-56
2022/01/11 18:54:33;;;;;;;12.77;9.63;;;;;;;20.41;42.21;98493.44;12609276;23;20022;-50
2022/01/11 18:59:54;;;;;;;13.93;9.30;;;;;;;20.43;42.16;98491.25;12628796;23;20042;-50
2022/01/11 19:05:16;;;;;;;11.73;9.15;;;;;;;20.44;42.16;98496.34;12603692;23;20019;-50
2022/01/11 19:10:36;;;;;;;12.95;9.73;;;;;;;20.45;42.17;98499.88;12608772;23;20029;-49
2022/01/11 19:15:56;;;;;;;14.48;9.68;;;;;;;20.47;42.35;98508.53;12607402;23;20490;-52
2022/01/11 19:21:16;;;;;;;13.77;9.80;;;;;;;20.48;42.70;98519.06;12626427;23;20522;-50
2022/01/11 19:26:36;;;;;;;12.75;9.55;;;;;;;20.49;42.61;98520.66;12611860;23;20023;-50
2022/01/11 19:31:57;;;;;;;13.15;10.00;;;;;;;20.50;42.84;98529.59;12611704;23;20534;-50
2022/01/11 19:37:19;;;;;;;13.82;9.80;;;;;;;20.51;43.03;98531.22;12611318;23;20024;-50
2022/01/11 19:42:38;;;;;;;16.40;10.00;;;;;;;20.52;43.22;98520.09;12631791;23;20474;-52
2022/01/11 19:47:59;;;;;;;13.38;9.48;;;;;;;20.54;43.56;98527.91;12631341;23;20105;-49
2022/01/11 19:53:19;;;;;;;13.75;9.65;;;;;;;20.55;43.50;98532.25;12612150;23;20633;-49
2022/01/11 19:58:39;;;;;;;15.23;9.07;;;;;;;20.56;43.58;98533.84;12611687;23;20387;-49
2022/01/11 20:03:58;;;;;;;11.98;9.18;;;;;;;20.55;43.45;98529.53;12626676;23;20451;-49
2022/01/11 20:09:18;;;;;;;12.73;8.80;;;;;;;20.55;43.70;98513.28;12610661;23;20543;-49
2022/01/11 20:14:38;;;;;;;14.23;9.32;;;;;;;20.57;44.12;98519.22;12630785;23;20025;-52
2022/01/11 20:19:58;;;;;;;13.15;9.10;;;;;;;20.56;44.03;98509.47;12609711;23;20022;-49
2022/01/11 20:30:56;;;;;;;13.43;9.17;;;;;;;20.56;44.03;98512.19;12611101;23;20395;-50
2022/01/11 20:36:16;;;;;;;14.68;9.20;;;;;;;20.56;43.94;98512.19;12610348;23;20097;-50
2022/01/11 20:41:35;;;;;;;16.33;8.73;;;;;;;20.56;44.17;98517.59;12612085;23;20118;-51
2022/01/11 20:46:55;;;;;;;17.85;9.15;;;;;;;20.54;44.04;98506.25;12630463;23;20022;-50
2022/01/11 20:57:35;;;;;;;15.45;10.10;;;;;;;20.53;44.10;98520.91;12629152;23;20023;-50
2022/01/11 21:02:57;;;;;;;17.95;9.90;;;;;;;20.51;44.15;98509.56;12609999;23;20656;-51
2022/01/11 21:08:17;;;;;;;17.08;10.50;;;;;;;20.48;44.13;98529.06;12609209;23;20026;-50
2022/01/11 21:13:37;;;;;;;18.92;10.27;;;;;;;20.48;44.11;98529.06;12610697;23;20578;-50
2022/01/11 21:24:35;;;;;;;16.47;10.07;;;;;;;20.47;44.34;98536.38;12601027;23;20014;-52
2022/01/11 21:29:55;;;;;;;14.40;10.02;;;;;;;20.45;44.46;98540.47;12606107;23;20019;-52
2022/01/11 21:35:14;;;;;;;17.85;9.98;;;;;;;20.43;44.52;98531.84;12608063;23;20018;-54
2022/01/11 21:40:35;;;;;;;16.70;10.27;;;;;;;20.43;44.81;98537.25;12607238;23;20026;-52
2022/01/11 21:45:55;;;;;;;17.98;10.30;;;;;;;20.42;45.01;98530.22;12607547;23;20024;-51
2022/01/11 21:51:14;;;;;;;14.75;9.45;;;;;;;20.41;45.07;98534.03;12627865;23;20024;-51
2022/01/11 21:56:35;;;;;;;16.00;9.25;;;;;;;20.39;45.08;98531.59;12607827;23;20015;-52
2022/01/11 22:01:55;;;;;;;13.85;9.18;;;;;;;20.37;45.35;98535.72;12608240;23;20473;-51
2022/01/11 22:07:14;;;;;;;13.10;9.20;;;;;;;20.34;45.29;98535.16;12607670;23;20015;-51
2022/01/11 22:12:38;;;;;;;13.10;8.82;;;;;;;20.34;45.31;98535.16;12607153;23;20023;-51
2022/01/11 22:18:00;;;;;;;12.80;9.00;;;;;;;20.32;45.31;98544.66;12609050;23;20023;-52
2022/01/11 22:23:19;;;;;;;15.68;8.95;;;;;;;20.31;45.31;98543.88;12629038;23;20109;-54
2022/01/11 22:28:38;;;;;;;12.77;8.90;;;;;;;20.28;45.15;98544.44;12610164;23;20021;-52
2022/01/11 22:33:58;;;;;;;12.20;8.52;;;;;;;20.27;45.14;98552.84;12629451;23;20014;-52
2022/01/11 22:39:18;;;;;;;11.82;8.73;;;;;;;20.25;45.05;98546.94;12609190;23;20022;-54
2022/01/11 22:44:38;;;;;;;13.18;9.15;;;;;;;20.23;44.83;98544.50;12629711;23;20024;-54
2022/01/11 22:49:57;;;;;;;14.75;8.43;;;;;;;20.21;45.09;98543.97;12609227;23;20032;-53
2022/01/11 22:55:17;;;;;;;12.50;9.23;;;;;;;20.19;44.84;98543.47;12609787;23;20085;-51
2022/01/11 23:00:42;;;;;;;12.25;8.50;;;;;;;20.18;44.55;98536.41;12628465;23;20018;-53
2022/01/11 23:06:03;;;;;;;11.45;8.75;;;;;;;20.16;44.80;98544.03;12608662;23;20034;-54
2022/01/11 23:11:32;;;;;;;12.98;8.68;;;;;;;20.14;44.54;98538.09;12609301;23;20026;-54
2022/01/11 23:16:54;;;;;;;11.98;8.00;;;;;;;20.12;44.40;98537.56;12609018;23;20467;-53
2022/01/11 23:22:18;;;;;;;12.10;8.43;;;;;;;20.09;44.29;98530.84;12609283;23;20558;-53
2022/01/11 23:27:40;;;;;;;10.57;8.00;;;;;;;20.09;44.28;98524.59;12608387;23;20029;-52
2022/01/11 23:33:03;;;;;;;12.15;8.15;;;;;;;20.07;44.15;98521.38;12609126;23;20081;-53
2022/01/11 23:38:26;;;;;;;11.10;8.25;;;;;;;20.06;44.06;98525.97;12609065;23;20024;-52
2022/01/11 23:44:07;;;;;;;12.35;8.48;;;;;;;20.03;44.04;98521.16;12608563;23;20022;-54
2022/01/11 23:49:27;;;;;;;10.48;7.43;;;;;;;20.02;44.12;98532.25;12608394;23;20082;-51
2022/01/11 23:54:49;;;;;;;10.18;7.90;;;;;;;20.00;44.10;98539.84;12608931;23;20022;-53
